createdAt,value
2023-01-04T00:00:47.105Z,101684.36
2023-01-04T00:03:29.483Z,101682.81
2023-01-04T00:06:12.404Z,101683.36
2023-01-04T00:08:50.653Z,101682.51
2023-01-04T00:11:24.021Z,101681.50
2023-01-04T00:13:59.016Z,101681.23
2023-01-04T00:16:29.803Z,101678.57
2023-01-04T00:19:01.916Z,101679.52
2023-01-04T00:21:34.329Z,101681.31
2023-01-04T00:24:16.582Z,101684.16
2023-01-04T00:26:57.598Z,101683.89
2023-01-04T00:29:33.475Z,101680.67
2023-01-04T00:32:05.702Z,101681.55
2023-01-04T00:34:42.300Z,101681.14
2023-01-04T00:37:26.606Z,101677.94
2023-01-04T00:40:00.048Z,101675.15
2023-01-04T00:42:33.544Z,101674.33
2023-01-04T00:45:04.862Z,101669.32
2023-01-04T00:47:37.177Z,101670.77
2023-01-04T00:50:08.713Z,101671.38
2023-01-04T00:52:39.828Z,101671.47
2023-01-04T00:55:13.372Z,101670.70
2023-01-04T00:57:44.510Z,101670.08
2023-01-04T01:00:20.364Z,101669.79
2023-01-04T01:02:55.252Z,101668.61
2023-01-04T01:05:29.050Z,101671.23
2023-01-04T01:08:23.934Z,101664.96
2023-01-04T01:10:54.764Z,101668.41
2023-01-04T01:13:26.551Z,101666.06
2023-01-04T01:16:10.738Z,101668.10
2023-01-04T01:18:43.406Z,101665.76
2023-01-04T01:21:19.104Z,101672.73
2023-01-04T01:23:50.059Z,101673.05
2023-01-04T01:26:23.124Z,101669.25
2023-01-04T01:28:53.638Z,101665.99
2023-01-04T01:31:32.092Z,101669.92
2023-01-04T01:34:08.359Z,101670.21
2023-01-04T01:36:39.642Z,101668.73
2023-01-04T01:39:09.554Z,101666.12
2023-01-04T01:41:39.275Z,101664.59
2023-01-04T01:44:43.311Z,101662.13
2023-01-04T01:47:47.849Z,101661.61
2023-01-04T01:50:47.503Z,101653.29
2023-01-04T01:53:18.103Z,101651.63
2023-01-04T01:55:50.180Z,101645.88
2023-01-04T01:58:38.047Z,101644.45
2023-01-04T02:01:12.994Z,101647.34
2023-01-04T02:03:44.466Z,101648.21
2023-01-04T02:06:24.075Z,101647.79
2023-01-04T02:08:59.584Z,101646.09
2023-01-04T02:11:34.983Z,101640.80
2023-01-04T02:14:27.295Z,101645.48
2023-01-04T02:17:15.383Z,101638.39
2023-01-04T02:20:27.293Z,101637.66
2023-01-04T02:23:49.106Z,101628.28
2023-01-04T02:27:14.450Z,101619.70
2023-01-04T02:29:51.890Z,101614.73
2023-01-04T02:33:04.138Z,101609.77
2023-01-04T02:36:20.141Z,101605.45
2023-01-04T02:39:24.279Z,101599.47
2023-01-04T02:42:52.322Z,101591.31
2023-01-04T02:45:49.176Z,101583.65
2023-01-04T02:48:47.107Z,101575.95
2023-01-04T02:51:43.385Z,101570.41
2023-01-04T02:54:46.422Z,101568.27
2023-01-04T02:57:54.159Z,101566.00
2023-01-04T03:01:35.441Z,101565.96
2023-01-04T03:04:58.613Z,101561.76
2023-01-04T03:08:13.686Z,101556.30
2023-01-04T03:11:03.633Z,101544.13
2023-01-04T03:13:50.332Z,101540.06
2023-01-04T03:16:33.254Z,101534.21
2023-01-04T03:19:38.992Z,101537.52
2023-01-04T03:22:40.952Z,101532.25
2023-01-04T03:25:47.427Z,101527.84
2023-01-04T03:28:48.604Z,101525.83
2023-01-04T03:32:33.321Z,101520.17
2023-01-04T03:35:48.348Z,101515.47
2023-01-04T03:39:17.539Z,101513.25
2023-01-04T03:42:33.900Z,101511.36
2023-01-04T03:45:45.661Z,101511.03
2023-01-04T03:48:53.469Z,101499.77
2023-01-04T03:51:45.026Z,101491.17
2023-01-04T03:54:38.985Z,101484.30
2023-01-04T03:57:34.784Z,101479.80
2023-01-04T04:00:24.960Z,101477.16
2023-01-04T04:03:27.173Z,101479.15
2023-01-04T04:06:16.290Z,101476.45
2023-01-04T04:09:01.779Z,101468.09
2023-01-04T04:11:46.972Z,101468.16
2023-01-04T04:14:39.182Z,101468.73
2023-01-04T04:17:34.314Z,101466.92
2023-01-04T04:20:13.303Z,101460.95
2023-01-04T04:22:48.326Z,101463.38
2023-01-04T04:25:21.811Z,101462.02
2023-01-04T04:27:51.518Z,101462.35
2023-01-04T04:30:27.564Z,101458.54
2023-01-04T04:33:01.037Z,101454.60
2023-01-04T04:35:30.772Z,101461.02
2023-01-04T04:38:00.466Z,101460.83
2023-01-04T04:40:48.931Z,101457.44
2023-01-04T04:43:28.337Z,101452.88
2023-01-04T04:46:08.065Z,101449.16
2023-01-04T04:48:39.280Z,101449.99
2023-01-04T04:51:11.866Z,101454.91
2023-01-04T04:53:41.873Z,101461.08
2023-01-04T04:56:11.795Z,101462.52
2023-01-04T04:58:41.940Z,101469.09
2023-01-04T05:01:13.102Z,101472.89
2023-01-04T05:03:45.561Z,101470.69
2023-01-04T05:06:20.308Z,101473.39
2023-01-04T05:08:55.278Z,101467.70
2023-01-04T05:11:45.573Z,101460.45
2023-01-04T05:14:16.929Z,101451.13
2023-01-04T05:16:46.740Z,101443.91
2023-01-04T05:19:19.703Z,101437.55
2023-01-04T05:21:49.533Z,101428.32
2023-01-04T05:24:19.218Z,101424.73
2023-01-04T05:27:13.861Z,101420.56
2023-01-04T05:30:18.182Z,101412.93
2023-01-04T05:32:59.100Z,101407.20
2023-01-04T05:35:49.853Z,101398.91
2023-01-04T05:38:41.276Z,101385.66
2023-01-04T05:41:35.641Z,101371.02
2023-01-04T05:44:24.200Z,101366.13
2023-01-04T05:47:01.300Z,101358.84
2023-01-04T05:49:52.996Z,101352.65
2023-01-04T05:52:32.688Z,101347.64
2023-01-04T05:55:09.019Z,101342.46
2023-01-04T05:58:00.184Z,101340.17
2023-01-04T06:00:37.838Z,101343.73
2023-01-04T06:03:19.576Z,101342.17
2023-01-04T06:05:56.819Z,101338.60
2023-01-04T06:08:29.173Z,101331.89
2023-01-04T06:11:27.693Z,101322.82
2023-01-04T06:14:05.910Z,101319.44
2023-01-04T06:16:38.276Z,101326.02
2023-01-04T06:19:07.700Z,101328.64
2023-01-04T06:21:39.050Z,101325.08
2023-01-04T06:24:17.095Z,101327.35
2023-01-04T06:26:52.433Z,101325.63
2023-01-04T06:29:28.495Z,101322.99
2023-01-04T06:32:11.183Z,101313.65
2023-01-04T06:34:44.008Z,101308.69
2023-01-04T06:37:21.663Z,101305.62
2023-01-04T06:40:22.619Z,101314.38
2023-01-04T06:43:07.067Z,101319.52
2023-01-04T06:46:07.321Z,101317.49
2023-01-04T06:49:19.860Z,101324.20
2023-01-04T06:52:23.951Z,101318.44
2023-01-04T06:56:03.977Z,101306.67
2023-01-04T06:58:04.498Z,101310.09
2023-01-04T07:00:52.332Z,101308.79
2023-01-04T07:03:25.446Z,101311.83
2023-01-04T07:06:19.415Z,101310.74
2023-01-04T07:09:05.055Z,101299.04
2023-01-04T07:11:34.655Z,101289.17
2023-01-04T07:14:04.724Z,101284.93
2023-01-04T07:16:37.637Z,101283.39
2023-01-04T07:19:09.715Z,101278.30
2023-01-04T07:21:44.582Z,101278.33
2023-01-04T07:24:14.504Z,101277.05
2023-01-04T07:26:44.555Z,101268.55
2023-01-04T07:29:15.888Z,101256.29
2023-01-04T07:31:51.862Z,101257.16
2023-01-04T07:34:26.069Z,101257.50
2023-01-04T07:36:59.227Z,101256.88
2023-01-04T07:39:29.356Z,101249.92
2023-01-04T07:41:59.148Z,101243.98
2023-01-04T07:44:29.202Z,101231.18
2023-01-04T07:47:01.384Z,101222.99
2023-01-04T07:49:33.052Z,101219.42
2023-01-04T07:52:03.582Z,101213.11
2023-01-04T07:54:36.576Z,101214.56
2023-01-04T07:57:06.658Z,101215.70
2023-01-04T07:59:39.159Z,101220.07
2023-01-04T08:02:12.584Z,101226.88
2023-01-04T08:04:45.797Z,101223.60
2023-01-04T08:07:16.820Z,101218.10
2023-01-04T08:09:46.675Z,101217.20
2023-01-04T08:12:16.647Z,101217.34
2023-01-04T08:14:49.836Z,101215.95
2023-01-04T08:17:22.822Z,101209.44
2023-01-04T08:19:53.969Z,101202.73
2023-01-04T08:22:32.615Z,101194.98
2023-01-04T08:25:31.005Z,101186.08
2023-01-04T08:28:29.375Z,101175.05
2023-01-04T08:31:04.456Z,101166.81
2023-01-04T08:33:36.791Z,101156.67
2023-01-04T08:36:10.155Z,101154.25
2023-01-04T08:39:00.561Z,101144.35
2023-01-04T08:42:20.313Z,101135.59
2023-01-04T08:45:00.275Z,101128.24
2023-01-04T08:47:37.889Z,101124.39
2023-01-04T08:50:10.988Z,101122.99
2023-01-04T08:52:42.649Z,101126.04
2023-01-04T08:55:15.187Z,101122.89
2023-01-04T08:57:47.060Z,101118.36
2023-01-04T09:00:19.537Z,101117.74
2023-01-04T09:02:49.737Z,101105.09
2023-01-04T09:05:22.182Z,101098.83
2023-01-04T09:07:55.294Z,101096.32
2023-01-04T09:10:24.696Z,101087.42
2023-01-04T09:12:54.529Z,101085.57
2023-01-04T09:15:24.040Z,101087.31
2023-01-04T09:18:21.075Z,101088.73
2023-01-04T09:20:43.556Z,101082.56
2023-01-04T09:23:13.050Z,101082.25
2023-01-04T09:25:42.729Z,101077.81
2023-01-04T09:28:12.560Z,101067.67
2023-01-04T09:30:42.479Z,101056.52
2023-01-04T09:33:12.100Z,101045.85
2023-01-04T09:35:44.307Z,101038.45
2023-01-04T09:38:13.661Z,101029.15
2023-01-04T09:41:29.006Z,101016.23
2023-01-04T09:44:54.423Z,101009.52
2023-01-04T09:47:26.662Z,100999.17
2023-01-04T09:50:13.395Z,100992.28
2023-01-04T09:53:16.675Z,100978.66
2023-01-04T09:55:55.999Z,100973.65
2023-01-04T09:58:38.379Z,100963.81
2023-01-04T10:01:25.045Z,100949.47
2023-01-04T10:04:21.148Z,100944.31
2023-01-04T10:06:55.378Z,100948.09
2023-01-04T10:09:28.527Z,100948.23
2023-01-04T10:12:18.675Z,100938.70
2023-01-04T10:15:08.781Z,100933.65
2023-01-04T10:21:33.689Z,100916.86
2023-01-04T10:24:13.004Z,100902.65
2023-01-04T10:26:51.897Z,100890.16
2023-01-04T10:29:45.354Z,100883.71
2023-01-04T10:32:44.596Z,100874.02
2023-01-04T10:35:22.797Z,100870.33
2023-01-04T10:37:59.651Z,100862.52
2023-01-04T10:40:39.724Z,100844.86
2023-01-04T10:44:09.802Z,100834.67
2023-01-04T10:46:38.921Z,100830.33
2023-01-04T10:49:28.862Z,100828.23
2023-01-04T10:52:12.183Z,100825.14
2023-01-04T10:54:53.349Z,100821.48
2023-01-04T10:57:50.438Z,100810.78
2023-01-04T11:00:35.289Z,100802.34
2023-01-04T11:03:42.376Z,100784.02
2023-01-04T11:06:21.724Z,100772.13
2023-01-04T11:09:13.445Z,100765.25
2023-01-04T11:11:46.718Z,100768.70
2023-01-04T11:14:16.356Z,100769.37
2023-01-04T11:16:53.202Z,100758.95
2023-01-04T11:19:23.231Z,100746.58
2023-01-04T11:22:26.817Z,100746.81
2023-01-04T11:28:02.989Z,100719.58
2023-01-04T11:31:10.160Z,100713.84
2023-01-04T11:33:54.597Z,100705.88
2023-01-04T11:36:50.355Z,100698.94
2023-01-04T11:39:24.543Z,100689.98
2023-01-04T11:42:04.806Z,100683.20
2023-01-04T11:44:38.062Z,100675.91
2023-01-04T11:47:26.737Z,100668.10
2023-01-04T11:50:00.047Z,100652.70
2023-01-04T11:52:38.045Z,100642.33
2023-01-04T11:55:33.966Z,100627.83
2023-01-04T11:58:17.411Z,100631.19
2023-01-04T12:00:56.792Z,100630.83
2023-01-04T12:03:38.640Z,100623.71
2023-01-04T12:06:18.206Z,100617.67
2023-01-04T12:08:48.187Z,100610.21
2023-01-04T12:11:31.125Z,100605.52
2023-01-04T12:14:02.009Z,100595.93
2023-01-04T12:16:51.630Z,100592.88
2023-01-04T12:19:22.957Z,100589.30
2023-01-04T12:21:57.787Z,100579.18
2023-01-04T12:24:34.428Z,100570.66
2023-01-04T12:27:04.765Z,100556.57
2023-01-04T12:29:55.318Z,100552.73
2023-01-04T12:32:27.926Z,100553.50
2023-01-04T12:34:58.045Z,100552.73
2023-01-04T12:37:46.540Z,100546.15
2023-01-04T12:40:47.980Z,100536.30
2023-01-04T12:43:17.524Z,100528.13
2023-01-04T12:46:08.911Z,100513.66
2023-01-04T12:49:00.215Z,100506.98
2023-01-04T12:51:31.698Z,100503.21
2023-01-04T12:54:06.083Z,100499.33
2023-01-04T12:57:10.690Z,100497.73
2023-01-04T12:59:56.117Z,100494.06
2023-01-04T13:02:40.053Z,100483.86
2023-01-04T13:05:54.751Z,100473.02
2023-01-04T13:08:15.560Z,100461.38
2023-01-04T13:10:57.130Z,100451.06
2023-01-04T13:13:51.397Z,100444.33
2023-01-04T13:17:10.978Z,100439.98
2023-01-04T13:19:44.640Z,100433.25
2023-01-04T13:22:30.731Z,100423.66
2023-01-04T13:25:04.592Z,100418.64
2023-01-04T13:27:34.612Z,100410.05
2023-01-04T13:30:36.983Z,100400.74
2023-01-04T13:33:28.554Z,100400.33
2023-01-04T13:36:20.102Z,100394.48
2023-01-04T13:38:50.329Z,100387.04
2023-01-04T13:41:23.723Z,100376.13
2023-01-04T13:44:26.065Z,100368.17
2023-01-04T13:47:03.288Z,100358.08
2023-01-04T13:49:39.871Z,100361.91
2023-01-04T13:52:50.570Z,100359.48
2023-01-04T13:55:37.118Z,100353.20
2023-01-04T13:58:18.340Z,100349.38
2023-01-04T14:01:20.168Z,100349.04
2023-01-04T14:03:57.654Z,100354.20
2023-01-04T14:06:46.896Z,100365.05
2023-01-04T14:09:22.971Z,100352.98
2023-01-04T14:15:07.042Z,100350.63
2023-01-04T14:17:49.439Z,100356.58
2023-01-04T14:20:24.591Z,100344.95
2023-01-04T14:22:57.543Z,100336.79
2023-01-04T14:25:45.256Z,100328.02
2023-01-04T14:28:29.882Z,100320.09
2023-01-04T14:31:02.014Z,100320.71
2023-01-04T14:33:40.996Z,100317.09
2023-01-04T14:36:13.515Z,100307.45
2023-01-04T14:39:19.789Z,100298.52
2023-01-04T14:41:49.800Z,100290.27
2023-01-04T14:44:31.139Z,100284.33
2023-01-04T14:47:41.148Z,100276.91
2023-01-04T14:50:16.159Z,100268.33
2023-01-04T14:52:55.175Z,100265.02
2023-01-04T14:55:31.603Z,100261.44
2023-01-04T14:58:03.832Z,100262.28
2023-01-04T15:00:34.980Z,100255.50
2023-01-04T15:03:04.975Z,100257.40
2023-01-04T15:05:38.053Z,100253.58
2023-01-04T15:08:13.491Z,100251.66
2023-01-04T15:10:43.559Z,100244.75
2023-01-04T15:13:13.686Z,100239.76
2023-01-04T15:15:43.420Z,100239.55
2023-01-04T15:18:13.027Z,100238.84
2023-01-04T15:20:43.051Z,100234.89
2023-01-04T15:23:13.017Z,100233.95
2023-01-04T15:25:48.352Z,100226.45
2023-01-04T15:28:32.618Z,100218.20
2023-01-04T15:31:19.629Z,100216.11
2023-01-04T15:33:52.765Z,100210.21
2023-01-04T15:36:24.390Z,100212.20
2023-01-04T15:39:02.462Z,100207.13
2023-01-04T15:41:51.195Z,100202.31
2023-01-04T15:44:21.182Z,100194.19
2023-01-04T15:46:54.951Z,100189.78
2023-01-04T15:49:30.669Z,100184.91
2023-01-04T15:52:00.523Z,100177.80
2023-01-04T15:54:30.643Z,100171.55
2023-01-04T15:57:00.491Z,100171.34
2023-01-04T15:59:30.433Z,100161.98
2023-01-04T16:01:59.998Z,100154.84
2023-01-04T16:04:29.657Z,100147.56
2023-01-04T16:06:59.361Z,100145.85
2023-01-04T16:09:29.603Z,100146.98
2023-01-04T16:12:17.989Z,100144.15
2023-01-04T16:14:47.845Z,100138.11
2023-01-04T16:17:17.368Z,100129.64
2023-01-04T16:19:47.089Z,100125.84
2023-01-04T16:22:16.638Z,100123.92
2023-01-04T16:27:39.533Z,100112.79
2023-01-04T16:30:13.834Z,100110.21
2023-01-04T16:32:59.448Z,100109.29
2023-01-04T16:35:33.843Z,100099.47
2023-01-04T16:38:03.887Z,100098.84
2023-01-04T16:40:33.821Z,100099.48
2023-01-04T16:43:07.456Z,100093.25
2023-01-04T16:45:45.755Z,100086.02
2023-01-04T16:48:21.768Z,100089.60
2023-01-04T16:50:53.857Z,100089.67
2023-01-04T16:53:23.668Z,100085.88
2023-01-04T16:55:54.059Z,100084.52
2023-01-04T16:58:24.335Z,100072.73
2023-01-04T17:00:57.294Z,100068.72
2023-01-04T17:03:30.395Z,100061.92
2023-01-04T17:06:22.783Z,100054.01
2023-01-04T17:08:59.960Z,100053.63
2023-01-04T17:14:33.992Z,100047.20
2023-01-04T17:17:08.191Z,100041.13
2023-01-04T17:20:06.033Z,100036.55
2023-01-04T17:22:47.728Z,100029.88
2023-01-04T17:25:28.047Z,100026.88
2023-01-04T17:28:09.969Z,100028.15
2023-01-04T17:30:43.308Z,100025.63
2023-01-04T17:33:22.006Z,100031.39
2023-01-04T17:35:58.406Z,100027.00
2023-01-04T17:38:36.754Z,100008.02
2023-01-04T17:41:28.003Z,100013.35
2023-01-04T17:44:11.119Z,100009.57
2023-01-04T17:46:44.438Z,100006.36
2023-01-04T17:49:31.525Z,99999.58
2023-01-04T17:52:16.545Z,99996.02
2023-01-04T17:55:00.470Z,99994.58
2023-01-04T17:57:47.371Z,99987.41
2023-01-04T18:03:20.158Z,99973.17
2023-01-04T18:09:00.291Z,99974.04
2023-01-04T18:11:32.593Z,99963.48
2023-01-04T18:14:09.643Z,99959.53
2023-01-04T18:16:59.822Z,99955.81
2023-01-04T18:19:44.550Z,99951.92
2023-01-04T18:22:26.729Z,99950.08
2023-01-04T18:25:00.885Z,99947.43
2023-01-04T18:27:33.209Z,99943.74
2023-01-04T18:30:05.074Z,99944.45
2023-01-04T18:32:34.971Z,99937.34
2023-01-04T18:35:05.947Z,99935.09
2023-01-04T18:37:42.699Z,99932.76
2023-01-04T18:40:21.855Z,99932.21
2023-01-04T18:42:53.172Z,99926.32
2023-01-04T18:45:32.402Z,99925.83
2023-01-04T18:48:14.550Z,99923.54
2023-01-04T18:50:53.733Z,99921.89
2023-01-04T18:53:23.720Z,99918.88
2023-01-04T18:55:53.497Z,99920.02
2023-01-04T18:58:23.664Z,99909.95
2023-01-04T19:01:07.338Z,99902.19
2023-01-04T19:04:11.714Z,99897.07
2023-01-04T19:06:48.113Z,99894.27
2023-01-04T19:09:18.616Z,99898.63
2023-01-04T19:11:48.896Z,99891.02
2023-01-04T19:14:19.627Z,99881.69
2023-01-04T19:17:03.725Z,99874.17
2023-01-04T19:19:36.571Z,99876.05
2023-01-04T19:22:08.454Z,99872.76
2023-01-04T19:24:42.584Z,99873.78
2023-01-04T19:27:13.114Z,99875.50
2023-01-04T19:29:46.930Z,99875.04
2023-01-04T19:32:36.506Z,99867.20
2023-01-04T19:35:34.267Z,99857.08
2023-01-04T19:38:05.904Z,99852.23
2023-01-04T19:40:43.335Z,99855.60
2023-01-04T19:43:24.395Z,99854.54
2023-01-04T19:45:57.460Z,99849.67
2023-01-04T19:48:32.116Z,99850.80
2023-01-04T19:51:11.957Z,99838.86
2023-01-04T19:53:52.197Z,99842.05
2023-01-04T19:56:25.091Z,99840.27
2023-01-04T19:59:19.966Z,99839.98
2023-01-04T20:01:56.050Z,99832.35
2023-01-04T20:04:38.046Z,99831.66
2023-01-04T20:07:07.876Z,99831.73
2023-01-04T20:09:45.055Z,99828.87
2023-01-04T20:12:23.399Z,99824.52
2023-01-04T20:15:12.456Z,99812.70
2023-01-04T20:17:47.076Z,99812.86
2023-01-04T20:20:18.009Z,99819.38
2023-01-04T20:23:00.156Z,99810.61
2023-01-04T20:25:32.954Z,99802.34
2023-01-04T20:28:28.105Z,99796.77
2023-01-04T20:31:08.221Z,99796.60
2023-01-04T20:33:41.057Z,99791.61
2023-01-04T20:36:20.907Z,99780.63
2023-01-04T20:38:54.617Z,99779.42
2023-01-04T20:41:28.776Z,99775.25
2023-01-04T20:44:02.460Z,99773.10
2023-01-04T20:46:48.383Z,99773.19
2023-01-04T20:49:20.426Z,99769.34
2023-01-04T20:52:09.160Z,99760.05
2023-01-04T20:55:17.372Z,99758.23
2023-01-04T20:58:03.917Z,99751.71
2023-01-04T21:00:45.289Z,99748.21
2023-01-04T21:03:21.388Z,99749.91
2023-01-04T21:06:17.434Z,99747.85
2023-01-04T21:08:51.728Z,99743.77
2023-01-04T21:11:25.930Z,99741.06
2023-01-04T21:13:58.658Z,99735.04
2023-01-04T21:16:42.183Z,99732.46
2023-01-04T21:19:16.481Z,99727.79
2023-01-04T21:21:47.831Z,99720.42
2023-01-04T21:24:21.207Z,99714.08
2023-01-04T21:26:59.286Z,99713.83
2023-01-04T21:29:48.388Z,99716.17
2023-01-04T21:32:35.981Z,99714.01
2023-01-04T21:35:09.767Z,99716.23
2023-01-04T21:37:55.424Z,99716.98
2023-01-04T21:40:24.993Z,99712.57
2023-01-04T21:42:54.426Z,99703.41
2023-01-04T21:45:25.169Z,99693.80
2023-01-04T21:47:55.461Z,99686.75
2023-01-04T21:50:24.963Z,99685.14
2023-01-04T21:52:56.441Z,99674.73
2023-01-04T21:55:34.769Z,99672.30
2023-01-04T21:58:09.672Z,99670.23
2023-01-04T22:00:39.915Z,99665.83
2023-01-04T22:03:12.054Z,99661.19
2023-01-04T22:06:16.077Z,99665.58
2023-01-04T22:13:02.504Z,99658.56
2023-01-04T22:15:52.900Z,99659.82
2023-01-04T22:18:48.467Z,99650.85
2023-01-04T22:21:50.645Z,99646.54
2023-01-04T22:24:59.404Z,99641.09
2023-01-04T22:27:39.443Z,99640.88
2023-01-04T22:30:28.604Z,99632.36
2023-01-04T22:33:52.116Z,99638.36
2023-01-04T22:36:37.575Z,99629.63
2023-01-04T22:39:13.085Z,99620.29
2023-01-04T22:41:44.145Z,99613.17
2023-01-04T22:44:19.581Z,99608.79
2023-01-04T22:46:56.213Z,99604.43
2023-01-04T22:49:50.410Z,99606.89
2023-01-04T22:52:24.116Z,99600.13
2023-01-04T22:54:54.269Z,99598.80
2023-01-04T22:57:24.256Z,99603.45
2023-01-04T22:59:56.024Z,99601.36
2023-01-04T23:02:27.997Z,99600.55
2023-01-04T23:05:00.435Z,99602.92
2023-01-04T23:07:30.158Z,99599.54
2023-01-04T23:10:02.447Z,99599.89
2023-01-04T23:12:32.583Z,99593.29
2023-01-04T23:15:04.024Z,99590.15
2023-01-04T23:17:36.612Z,99583.30
2023-01-04T23:20:10.549Z,99578.85
2023-01-04T23:22:42.586Z,99578.42
2023-01-04T23:25:14.773Z,99574.90
2023-01-04T23:27:44.787Z,99566.39
2023-01-04T23:30:18.604Z,99559.70
2023-01-04T23:32:48.671Z,99557.63
2023-01-04T23:35:18.523Z,99554.20
2023-01-04T23:37:48.479Z,99554.25
2023-01-04T23:40:19.772Z,99552.11
2023-01-04T23:42:53.532Z,99551.09
2023-01-04T23:45:28.392Z,99541.59
2023-01-04T23:48:07.717Z,99530.86
2023-01-04T23:50:37.687Z,99532.40
2023-01-04T23:53:12.112Z,99529.30
2023-01-04T23:55:45.419Z,99526.52
